Flight Track Log - Related Links

Times and Time Zones

All times are in EDT time to prevent confusion due to time zone crossing. See the UPS110 flight status page for this flight to view local times or setup timezone preferences in your user account.


Time Position Orientation Groundspeed Altitude Reporting Facility
EDT Latitude Longitude Course Direction KTS MPH feet Rate Location/Type
Sun 11:26:02 AM 61.1930 -150.0110 343° North 153 176 600  Level FlightAware ADS-B
Sun 11:26:17 AM 61.2040 -150.0190 341° North 146 168 1,400 2,000 Climbing FlightAware ADS-B
Sun 11:26:47 AM 61.2210 -150.0520 317° Northwest 188 216 2,100 1,560 Climbing FlightAware ADS-B
Sun 11:27:07 AM 61.2360 -150.0770 321° Northwest 208 239 2,700 2,057 Climbing FlightAware ADS-B
Sun 11:27:22 AM 61.2460 -150.0950 319° Northwest 216 249 3,300 1,800 Climbing FlightAware ADS-B
Sun 11:27:37 AM 61.2580 -150.1200 315° West 242 278 3,600 1,600 Climbing FlightAware ADS-B
Sun 11:27:52 AM 61.2650 -150.1510 295° West 256 295 4,100 2,640 Climbing FlightAware ADS-B
Sun 11:28:02 AM 61.2660 -150.1750 275° West 257 296 4,700 3,231 Climbing FlightAware ADS-B
Sun 11:28:57 AM 61.2660 -150.3150 270° West 264 304 7,600 2,867 Climbing FlightAware ADS-B
Sun 11:29:32 AM 61.2680 -150.4020 273° West 278 320 9,000 2,640 Climbing FlightAware ADS-B
Sun 11:29:47 AM 61.2690 -150.4400 273° West 275 316 9,800 2,300 Climbing FlightAware ADS-B
Sun 11:30:32 AM 61.2710 -150.5670 272° West 309 356 11,300 1,875 Climbing FlightAware ADS-B
Sun 11:31:07 AM 61.2720 -150.6820 271° West 351 404 12,300 2,486 Climbing FlightAware ADS-B
Sun 11:31:42 AM 61.2730 -150.7970 271° West 363 418 14,200 3,450 Climbing FlightAware ADS-B
Sun 11:32:27 AM 61.2760 -150.9560 272° West 369 425 16,900 3,440 Climbing FlightAware ADS-B
Sun 11:32:57 AM 61.2770 -151.0640 271° West 377 434 18,500 3,040 Climbing FlightAware ADS-B
Sun 11:33:42 AM 61.2780 -151.2330 271° West 387 445 20,700 2,894 Climbing FlightAware ADS-B
Sun 11:34:22 AM 61.2800 -151.3850 272° West 395 455 22,600 2,625 Climbing FlightAware ADS-B
Sun 11:35:02 AM 61.2810 -151.5320 271° West 402 463 24,200 2,400 Climbing FlightAware ADS-B
Sun 11:35:47 AM 61.2820 -151.7110 271° West 411 473 26,000 2,308 Climbing FlightAware ADS-B
Sun 11:36:07 AM 61.2820 -151.7870 270° West 416 479 26,700 2,200 Climbing FlightAware ADS-B
Sun 11:36:47 AM 61.2830 -151.9490 271° West 420 483 28,200 2,475 Climbing FlightAware ADS-B
Sun 11:37:27 AM 61.2840 -152.1070 271° West 413 475 30,000 2,400 Climbing FlightAware ADS-B
Sun 11:38:12 AM 61.2850 -152.2850 271° West 412 474 31,600 1,760 Climbing FlightAware ADS-B
Sun 11:38:42 AM 61.2850 -152.4050 270° West 419 482 32,200 1,341 Climbing FlightAware ADS-B
Sun 11:39:37 AM 61.2860 -152.6290 271° West 427 491 33,500 1,553 Climbing FlightAware ADS-B
Sun 11:40:07 AM 61.2860 -152.7520 270° West 424 488 34,400 1,457 Climbing FlightAware ADS-B
Sun 11:40:47 AM 61.2860 -152.9150 270° West 427 491 35,200 1,200 Climbing FlightAware ADS-B
Sun 11:41:22 AM 61.2860 -153.0590 270° West 429 494 35,900 533 Climbing FlightAware ADS-B
Sun 11:42:17 AM 61.2850 -153.2850 270° West 438 504 36,000 67 Climbing FlightAware ADS-B
Sun 11:42:52 AM 61.2850 -153.4380 270° West 438 504 36,000  Level FlightAware ADS-B
Sun 11:43:32 AM 61.2840 -153.6000 269° West 435 501 36,000  Level FlightAware ADS-B
Sun 11:44:17 AM 61.2830 -153.7860 269° West 433 498 36,000  Level FlightAware ADS-B
Sun 11:44:47 AM 61.2820 -153.9130 269° West 430 495 36,000  Level FlightAware ADS-B
Sun 11:45:32 AM 61.2810 -154.0830 269° West 430 495 36,000  Level FlightAware ADS-B
Sun 11:46:12 AM 61.2790 -154.2610 269° West 427 491 36,000  Level FlightAware ADS-B
Sun 11:47:27 AM 61.2760 -154.5550 269° West 426 490 36,000  Level FlightAware ADS-B
Sun 11:48:07 AM 61.2750 -154.6950 269° West 426 490 36,000  Level FlightAware ADS-B
Sun 11:48:52 AM 61.2720 -154.8700 268° West 426 490 36,000  Level FlightAware ADS-B
Sun 11:49:22 AM 61.2710 -154.9740 269° West 426 490 36,000  Level FlightAware ADS-B
Sun 11:50:02 AM 61.2700 -155.1130 269° West 426 490 36,000  Level FlightAware ADS-B
Sun 11:50:32 AM 61.2690 -155.2180 269° West 426 490 36,000  Level FlightAware ADS-B
Sun 11:51:02 AM 61.2690 -155.3230 270° West 426 490 36,000  Level FlightAware ADS-B
Sun 11:51:32 AM 61.2680 -155.4270 269° West 426 490 36,000  Level FlightAware ADS-B
Sun 11:52:02 AM 61.2670 -155.5320 269° West 426 490 36,000  Level FlightAware ADS-B
Sun 11:52:42 AM 61.2660 -155.6710 269° West 426 490 36,000  Level FlightAware ADS-B
Sun 11:53:22 AM 61.2640 -155.8100 268° West 426 490 36,000  Level FlightAware ADS-B
Sun 11:54:12 AM 61.2630 -155.9850 269° West 426 490 36,000  Level FlightAware ADS-B
Sun 11:54:42 AM 61.2620 -156.0890 269° West 426 490 36,000  Level FlightAware ADS-B
Sun 11:55:22 AM 61.2610 -156.2280 269° West 426 490 36,000  Level FlightAware ADS-B
Sun 11:56:02 AM 61.2600 -156.3680 269° West 426 490 36,000  Level FlightAware ADS-B
Sun 11:56:42 AM 61.2590 -156.5070 269° West 426 490 36,000  Level FlightAware ADS-B
Sun 11:57:12 AM 61.2580 -156.6110 269° West 426 490 36,000  Level FlightAware ADS-B
Sun 11:57:52 AM 61.2560 -156.7510 268° West 426 490 36,000  Level FlightAware ADS-B
Sun 11:58:58 AM 61.1667 -157.3833 268° West 430 495 36,000  Level Anchorage Center
Sun 11:59:58 AM 61.1500 -157.6333 262° West 430 495 36,000  Level Anchorage Center
Sun 12:00:58 PM 61.1333 -157.8833 262° West 420 483 36,000  Level Anchorage Center
Sun 12:01:58 PM 61.1167 -158.1333 262° West 430 495 36,000  Level Anchorage Center
Sun 12:02:58 PM 61.1000 -158.3667 262° West 430 495 36,000  Level Anchorage Center
Sun 12:03:59 PM 61.0833 -158.6167 262° West 430 495 36,000  Level Anchorage Center
Sun 12:04:59 PM 61.0667 -158.8667 262° West 430 495 36,000  Level Anchorage Center
Sun 12:05:59 PM 61.0500 -159.1167 262° West 430 495 36,000  Level Anchorage Center
Sun 12:06:59 PM 61.0333 -159.3667 262° West 430 495 36,000  Level Anchorage Center
Sun 12:07:59 PM 61.0167 -159.6000 262° West 430 495 36,000  Level Anchorage Center
Sun 12:08:59 PM 61.0000 -159.8500 262° West 430 495 36,000  Level Anchorage Center
Sun 12:09:59 PM 60.9833 -160.1000 262° West 430 495 36,000  Level Anchorage Center
Sun 12:10:59 PM 60.9667 -160.3333 262° West 430 495 36,000  Level Anchorage Center
Sun 12:11:59 PM 60.9500 -160.5833 262° West 430 495 36,000  Level Anchorage Center
Sun 12:12:59 PM 60.9333 -160.8333 262° West 430 495 36,000  Level Anchorage Center
Sun 12:14:00 PM 60.9167 -161.0667 262° West 420 483 36,000  Level Anchorage Center
Sun 12:15:00 PM 60.8833 -161.3500 257° West 430 495 36,000  Level Anchorage Center
Sun 12:16:00 PM 60.8667 -161.6000 262° West 430 495 36,000  Level Anchorage Center
Sun 12:17:00 PM 60.8500 -161.8000 260° West 440 506 36,000  Level Anchorage Center
Sun 12:18:00 PM 60.8167 -162.0500 255° West 440 506 36,000  Level Anchorage Center
Sun 12:19:00 PM 60.8000 -162.3333 263° West 430 495 36,000  Level Anchorage Center
Sun 12:20:00 PM 60.7833 -162.5833 262° West 430 495 36,000  Level Anchorage Center
Sun 12:21:00 PM 60.7500 -162.8333 255° West 440 506 36,000  Level Anchorage Center
Sun 12:22:01 PM 60.7333 -163.0833 262° West 440 506 36,000  Level Anchorage Center
Sun 12:23:01 PM 60.7000 -163.3167 254° West 440 506 36,000  Level Anchorage Center
Sun 12:24:01 PM 60.6833 -163.5667 262° West 440 506 36,000  Level Anchorage Center
Sun 12:25:01 PM 60.6500 -163.8167 255° West 440 506 36,000  Level Anchorage Center
Sun 12:26:01 PM 60.6167 -164.0667 255° West 450 518 36,000  Level Anchorage Center
Sun 12:27:01 PM 60.6000 -164.3000 262° West 430 495 36,000  Level Anchorage Center
Sun 12:28:01 PM 60.5667 -164.5500 255° West 450 518 36,000  Level Anchorage Center
Sun 12:29:02 PM 60.5500 -164.8000 262° West 440 506 36,000  Level Anchorage Center
Sun 12:31:02 PM 60.5000 -165.2500 257° West 440 506 36,000  Level Anchorage Center
Sun 12:32:02 PM 60.4667 -165.4833 254° West 440 506 36,000  Level Anchorage Center
Sun 12:33:02 PM 60.4333 -165.7333 255° West 440 506 36,000  Level Anchorage Center
Sun 12:34:02 PM 60.4000 -165.9667 254° West 440 506 36,000  Level Anchorage Center
Sun 12:35:02 PM 60.3833 -166.2167 262° West 440 506 36,000  Level Anchorage Center
Sun 12:36:09 PM 60.3333 -166.5167 252° West 440 506 36,000  Level Anchorage Center
Sun 12:37:09 PM 60.3000 -166.7500 254° West 440 506 36,000  Level Anchorage Center
Sun 12:38:08 PM 60.2833 -167.0000 262° West 440 506 36,000  Level Anchorage Center
Sun 12:39:09 PM 60.2500 -167.2333 254° West 450 518 36,000  Level Anchorage Center
Sun 12:40:09 PM 60.2167 -167.4833 255° West 440 506 36,000  Level Anchorage Center
Sun 12:41:09 PM 60.1833 -167.7333 255° West 450 518 36,000  Level Anchorage Center
Sun 12:42:09 PM 60.1500 -167.9667 254° West 450 518 36,000  Level Anchorage Center
Sun 12:43:09 PM 60.1167 -168.2000 254° West 440 506 36,000  Level Anchorage Center
Sun 12:44:09 PM 60.0833 -168.4500 255° West 440 506 36,000  Level Anchorage Center
Sun 12:46:09 PM 60.0000 -168.9167 251° West 440 506 36,000  Level Anchorage Center
Sun 12:47:09 PM 59.9667 -169.1667 255° West 450 518 36,000  Level Anchorage Center
Sun 12:49:09 PM 59.9000 -169.6333 254° West 440 506 36,000  Level Anchorage Center
Sun 12:50:09 PM 59.8667 -169.8500 253° West 440 506 36,000  Level Anchorage Center
Sun 12:51:09 PM 59.8333 -170.0833 254° West 440 506 36,000  Level Anchorage Center
Sun 12:52:10 PM 59.8000 -170.3167 254° West 440 506 36,000  Level Anchorage Center
Sun 12:53:10 PM 59.7500 -170.5667 248° West 440 506 36,000  Level Anchorage Center
Sun 12:54:09 PM 59.7167 -170.8000 254° West 440 506 36,000  Level Anchorage Center
Sun 12:55:10 PM 59.6833 -171.0333 254° West 440 506 36,000  Level Anchorage Center
Sun 12:56:10 PM 59.6333 -171.2500 246° West 440 506 36,000  Level Anchorage Center
Sun 12:57:10 PM 59.6000 -171.4833 254° West 440 506 36,000  Level Anchorage Center
Sun 12:58:10 PM 59.5667 -171.7167 254° West 440 506 36,000  Level Anchorage Center
Sun 12:59:10 PM 59.5167 -171.9500 247° West 440 506 36,000  Level Anchorage Center
Sun 01:00:10 PM 59.4667 -172.1833 247° West 440 506 36,000  Level Anchorage Center
Sun 01:01:10 PM 59.4167 -172.4167 247° West 450 518 36,000  Level Anchorage Center
Sun 01:02:10 PM 59.3833 -172.6333 253° West 440 506 36,000  Level Anchorage Center
Sun 01:03:10 PM 59.3333 -172.8667 247° West 440 506 36,000  Level Anchorage Center
Sun 01:04:10 PM 59.2833 -173.0833 246° West 450 518 36,000  Level Anchorage Center
Sun 01:06:10 PM 59.1833 -173.5500 247° West 450 518 36,000  Level Anchorage Center
Sun 01:07:10 PM 59.1333 -173.7667 246° West 450 518 36,000  Level Anchorage Center
Sun 01:08:10 PM 59.0833 -174.0000 247° West 450 518 36,000  Level Anchorage Center
Sun 01:09:10 PM 59.0333 -174.2333 247° West 460 529 36,000  Level Anchorage Center
Sun 01:10:10 PM 58.9833 -174.4500 246° West 440 506 36,000  Level Anchorage Center
Sun 01:11:11 PM 58.9333 -174.6667 246° West 450 518 36,000  Level Anchorage Center
Sun 01:12:10 PM 58.9000 -174.9000 255° West 440 506 36,000  Level Anchorage Center
Sun 01:13:10 PM 58.8333 -175.1167 239° Southwest 450 518 36,000  Level Anchorage Center
Sun 01:14:11 PM 58.8000 -175.3333 254° West 440 506 36,000  Level Anchorage Center
Sun 01:15:11 PM 58.7333 -175.5500 239° Southwest 450 518 36,000  Level Anchorage Center
Sun 01:16:11 PM 58.6833 -175.7833 248° West 450 518 36,000  Level Anchorage Center
Sun 01:17:11 PM 58.6333 -176.0000 246° West 460 529 36,000  Level Anchorage Center
Sun 01:18:11 PM 58.5833 -176.2167 246° West 450 518 36,000  Level Anchorage Center
Sun 01:19:11 PM 58.5333 -176.4500 248° West 450 518 36,000  Level Anchorage Center
Sun 01:20:11 PM 58.4833 -176.6667 246° West 450 518 36,000  Level Anchorage Center
Sun 01:21:11 PM 58.4167 -176.8833 240° Southwest 470 541 36,000  Level Anchorage Center
Sun 01:23:00 PM 58.3253 -177.2678 245° Southwest  Level FlightAware Approximate
Sun 01:25:49 PM 58.1833 -177.8833 244° Southwest 455 524 36,000  Level Anchorage Center
Sun 01:30:00 PM 57.9536 -178.7217 245° Southwest  Level FlightAware Approximate
Sun 01:31:00 PM 57.8991 -178.9269 244° Southwest  Level FlightAware Approximate
Sun 01:32:00 PM 57.8313 -179.2182 243° Southwest 455 524 36,000  Level FlightAware Transoceanic
Sun 01:33:00 PM 57.7712 -179.4382 243° Southwest 455 524 36,000  Level FlightAware Transoceanic
Sun 01:34:00 PM 57.7108 -179.6573 243° Southwest 455 524 36,000  Level FlightAware Transoceanic
Sun 01:35:00 PM 57.6500 -179.8758 242° Southwest 455 524 36,000  Level FlightAware Transoceanic
Sun 01:35:23 PM 57.6333 -179.9333 242° Southwest 459 528 36,000  Level Anchorage Center
Sun 01:36:00 PM 57.5889 179.9065 242° Southwest 455 524 36,000  Level FlightAware Transoceanic
Sun 01:37:00 PM 57.5274 179.6895 242° Southwest 455 524 36,000  Level FlightAware Transoceanic
Sun 01:38:00 PM 57.4655 179.4732 242° Southwest 455 524 36,000  Level FlightAware Transoceanic
Sun 01:39:00 PM 57.4032 179.2577 242° Southwest 455 524 36,000  Level FlightAware Transoceanic
Sun 01:40:00 PM 57.3405 179.0429 242° Southwest 455 524 36,000  Level FlightAware Transoceanic
Sun 01:41:00 PM 57.2775 178.8288 241° Southwest 455 524 36,000  Level FlightAware Transoceanic
Sun 01:42:00 PM 57.1998 178.5692 241° Southwest 459 528 36,000  Level FlightAware Transoceanic
Sun 01:43:00 PM 57.1365 178.3581 241° Southwest 459 528 36,000  Level FlightAware Transoceanic
Sun 01:44:00 PM 57.0727 178.1478 241° Southwest 459 528 36,000  Level FlightAware Transoceanic
Sun 01:44:57 PM 57.0500 178.0167 240° Southwest 463 533 36,000  Level Anchorage Center
Sun 01:45:00 PM 57.0087 177.9382 241° Southwest 459 528 36,000  Level FlightAware Transoceanic
Sun 01:46:00 PM 56.9442 177.7294 240° Southwest 459 528 36,000  Level FlightAware Transoceanic
Sun 01:47:00 PM 56.8795 177.5212 240° Southwest 459 528 36,000  Level FlightAware Transoceanic
Sun 01:48:00 PM 56.8144 177.3138 240° Southwest 459 528 36,000  Level FlightAware Transoceanic
Sun 01:48:15 PM 56.8333 177.3500 240° Southwest 463 533 36,000  Level Anchorage Center
Sun 01:49:00 PM 56.7489 177.1071 240° Southwest 459 528 36,000  Level FlightAware Transoceanic
Sun 01:50:00 PM 56.6831 176.9011 240° Southwest 459 528 36,000  Level FlightAware Transoceanic
Sun 01:51:00 PM 56.6507 176.7569 239° Southwest 463 533 36,000  Level FlightAware Transoceanic
Sun 01:52:00 PM 56.5829 176.5495 239° Southwest 463 533 36,000  Level FlightAware Transoceanic
Sun 01:53:00 PM 56.5148 176.3429 239° Southwest 463 533 36,000  Level FlightAware Transoceanic
Sun 01:54:00 PM 56.4462 176.1555 239° Southwest 463 533 36,000  Level FlightAware Transoceanic
Sun 01:54:33 PM 56.4167 176.0667 239° Southwest 468 539 36,000  Level Anchorage Center
Sun 01:55:00 PM 56.3805 175.9589 239° Southwest 463 533 36,000  Level FlightAware Transoceanic
Sun 01:56:00 PM 56.3146 175.7628 239° Southwest 463 533 36,000  Level FlightAware Transoceanic
Sun 01:57:00 PM 56.2483 175.5675 238° Southwest 463 533 36,000  Level FlightAware Transoceanic
Sun 01:58:00 PM 56.1818 175.3728 238° Southwest 463 533 36,000  Level FlightAware Transoceanic
Sun 01:59:00 PM 56.1149 175.1789 238° Southwest 463 533 36,000  Level FlightAware Transoceanic
Sun 02:00:00 PM 56.0477 174.9855 238° Southwest 463 533 36,000  Level FlightAware Transoceanic
Sun 02:01:00 PM 55.9595 174.7337 238° Southwest 468 539 36,000  Level FlightAware Transoceanic
Sun 02:01:04 PM 55.9500 174.7500 237° Southwest 480 552 36,000  Level Anchorage Center
Sun 02:02:00 PM 55.8930 174.5459 238° Southwest 468 539 36,000  Level FlightAware Transoceanic
Sun 02:02:03 PM 55.9000 174.5667 244° Southwest 480 552 36,000  Level Anchorage Center
Sun 02:03:00 PM 55.8263 174.3587 237° Southwest 468 539 36,000  Level FlightAware Transoceanic
Sun 02:03:04 PM 55.8167 174.3667 233° Southwest 470 541 36,000  Level Anchorage Center
Sun 02:04:00 PM 55.7593 174.1722 237° Southwest 468 539 36,000  Level FlightAware Transoceanic
Sun 02:04:04 PM 55.7500 174.1833 237° Southwest 470 541 36,000  Level Anchorage Center
Sun 02:05:00 PM 55.6919 173.9863 237° Southwest 468 539 36,000  Level FlightAware Transoceanic
Sun 02:05:04 PM 55.6833 173.9833 239° Southwest 470 541 36,000  Level Anchorage Center
Sun 02:06:00 PM 55.6243 173.8010 237° Southwest 468 539 36,000  Level FlightAware Transoceanic
Sun 02:06:04 PM 55.6167 173.8000 237° Southwest 470 541 36,000  Level Anchorage Center
Sun 02:07:04 PM 55.5333 173.6000 234° Southwest 470 541 36,000  Level Anchorage Center
Sun 02:08:04 PM 55.4667 173.3833 242° Southwest 470 541 36,000  Level Anchorage Center
Sun 02:09:04 PM 55.4000 173.2167 235° Southwest 470 541 36,000  Level Anchorage Center
Sun 02:10:04 PM 55.3167 173.0167 234° Southwest 470 541 36,000  Level Anchorage Center
Sun 02:11:04 PM 55.2500 172.8333 238° Southwest 480 552 36,000  Level Anchorage Center
Sun 02:12:04 PM 55.1833 172.6333 240° Southwest 470 541 36,000  Level Anchorage Center
Sun 02:13:04 PM 55.1167 172.4667 235° Southwest 460 529 36,000  Level Anchorage Center
Sun 02:14:04 PM 55.0333 172.2667 234° Southwest 470 541 36,000  Level Anchorage Center
Sun 02:15:05 PM 54.9500 172.0500 236° Southwest 470 541 36,000  Level Anchorage Center
Sun 02:16:05 PM 54.8833 171.9000 232° Southwest 470 541 36,000  Level Anchorage Center
Sun 02:17:05 PM 54.8000 171.7000 234° Southwest 470 541 36,000  Level Anchorage Center
Sun 02:18:04 PM 54.7333 171.5333 235° Southwest 480 552 36,000  Level Anchorage Center
Sun 02:19:05 PM 54.6667 171.3333 240° Southwest 470 541 36,000  Level Anchorage Center
Sun 02:20:05 PM 54.6000 171.1833 233° Southwest 460 529 36,000  Level Anchorage Center
Sun 02:21:05 PM 54.5167 170.9833 234° Southwest 470 541 36,000  Level Anchorage Center
Sun 02:22:05 PM 54.4500 170.8333 233° Southwest 460 529 36,000  Level Anchorage Center
Sun 02:23:05 PM 54.3500 170.6333 229° Southwest 490 564 36,000  Level Anchorage Center
Sun 02:24:05 PM 54.2667 170.4333 235° Southwest 470 541 36,000  Level Anchorage Center
Sun 02:25:05 PM 54.2000 170.2667 236° Southwest 490 564 36,000  Level Anchorage Center
Sun 02:26:05 PM 54.1167 170.0833 232° Southwest 460 529 36,000  Level Anchorage Center
Sun 02:27:05 PM 54.0500 169.9333 233° Southwest 460 529 36,000  Level Anchorage Center
Sun 02:28:05 PM 53.9667 169.7333 235° Southwest 470 541 36,000  Level Anchorage Center
Sun 02:29:05 PM 53.9000 169.5833 233° Southwest 460 529 36,000  Level Anchorage Center
Sun 02:30:05 PM 53.8167 169.3833 235° Southwest 470 541 36,000  Level Anchorage Center
Sun 02:31:05 PM 53.7333 169.2000 233° Southwest 490 564 36,000  Level Anchorage Center
Sun 02:32:05 PM 53.6667 169.0333 236° Southwest 490 564 36,000  Level Anchorage Center
Sun 02:33:06 PM 53.6000 168.8167 243° Southwest 480 552 36,000  Level Anchorage Center
Sun 02:34:06 PM 53.5333 168.6500 236° Southwest 490 564 36,000  Level Anchorage Center
Sun 02:36:21 PM 53.4167 168.2333 240° Southwest 463 533 36,000  Level Anchorage Center
Sun 02:42:00 PM 53.0253 167.1334 239° Southwest 463 533 36,000  Level FlightAware Transoceanic
Sun 02:42:41 PM 53.0000 167.0833 239° Southwest 463 533 36,000  Level Anchorage Center
Sun 02:43:00 PM 52.9590 166.9520 239° Southwest 463 533 36,000  Level FlightAware Transoceanic
Sun 02:44:00 PM 52.8926 166.7712 239° Southwest 463 533 36,000  Level FlightAware Transoceanic
Sun 02:45:00 PM 52.8258 166.5909 238° Southwest 463 533 36,000  Level FlightAware Transoceanic
Sun 02:46:00 PM 52.7588 166.4112 238° Southwest 463 533 36,000  Level FlightAware Transoceanic
Sun 02:47:00 PM 52.6915 166.2321 238° Southwest 463 533 36,000  Level FlightAware Transoceanic
Sun 02:48:00 PM 52.6239 166.0535 238° Southwest 463 533 36,000  Level FlightAware Transoceanic
Sun 02:49:00 PM 52.5342 165.8340 238° Southwest 463 533 36,000  Level FlightAware Transoceanic
Sun 02:50:00 PM 52.4666 165.6578 238° Southwest 463 533 36,000  Level FlightAware Transoceanic
Sun 02:51:00 PM 52.3987 165.4820 238° Southwest 463 533 36,000  Level FlightAware Transoceanic
Sun 02:52:00 PM 52.3306 165.3068 237° Southwest 463 533 36,000  Level FlightAware Transoceanic
Sun 02:52:14 PM 52.3333 165.3333 238° Southwest 465 535 36,000  Level Anchorage Center
Sun 02:53:00 PM 52.2622 165.1321 237° Southwest 463 533 36,000  Level FlightAware Transoceanic
Sun 02:54:00 PM 52.1936 164.9580 237° Southwest 463 533 36,000  Level FlightAware Transoceanic
Sun 02:55:00 PM 52.1246 164.7844 237° Southwest 463 533 36,000  Level FlightAware Transoceanic
Sun 02:56:00 PM 52.0555 164.6113 237° Southwest 463 533 36,000  Level FlightAware Transoceanic
Sun 02:57:00 PM 51.9861 164.4388 237° Southwest 463 533 36,000  Level FlightAware Transoceanic
Sun 02:58:00 PM 51.9189 164.2887 237° Southwest 465 535 36,000  Level FlightAware Transoceanic
Sun 02:59:00 PM 51.8490 164.1165 237° Southwest 465 535 36,000  Level FlightAware Transoceanic
Sun 03:00:00 PM 51.7788 163.9448 236° Southwest 465 535 36,000  Level FlightAware Transoceanic
Sun 03:01:00 PM 51.7083 163.7736 236° Southwest 465 535 36,000  Level FlightAware Transoceanic
Sun 03:02:00 PM 51.6376 163.6030 236° Southwest 465 535 36,000  Level FlightAware Transoceanic
Sun 03:02:14 PM 51.6500 163.6500 236° Southwest 465 535 36,000  Level Anchorage Center
Sun 03:03:00 PM 51.5666 163.4329 236° Southwest 465 535 36,000  Level FlightAware Transoceanic
Sun 03:04:00 PM 51.4954 163.2634 236° Southwest 465 535 36,000  Level FlightAware Transoceanic
Sun 03:05:00 PM 51.4240 163.0944 236° Southwest 465 535 36,000  Level FlightAware Transoceanic
Sun 03:06:00 PM 51.3523 162.9259 236° Southwest 465 535 36,000  Level FlightAware Transoceanic
Sun 03:07:00 PM 51.2804 162.7579 236° Southwest 465 535 36,000  Level FlightAware Transoceanic
Sun 03:08:00 PM 51.2181 162.6260 236° Southwest 465 535 36,000  Level FlightAware Transoceanic
Sun 03:09:00 PM 51.1452 162.4572 235° Southwest 465 535 36,000  Level FlightAware Transoceanic
Sun 03:10:00 PM 51.0721 162.2890 235° Southwest 465 535 36,000  Level FlightAware Transoceanic
Sun 03:11:00 PM 50.9988 162.1213 235° Southwest 465 535 36,000  Level FlightAware Transoceanic
Sun 03:11:21 PM 50.9500 162.0167 235° Southwest 464 534 36,000  Level Anchorage Center
Sun 03:12:00 PM 50.9252 161.9541 235° Southwest 465 535 36,000  Level FlightAware Transoceanic
Sun 03:13:00 PM 50.8514 161.7874 235° Southwest 465 535 36,000  Level FlightAware Transoceanic
Sun 03:14:00 PM 50.7774 161.6213 235° Southwest 465 535 36,000  Level FlightAware Transoceanic
Sun 03:15:00 PM 50.7031 161.4557 235° Southwest 465 535 36,000  Level FlightAware Transoceanic
Sun 03:16:00 PM 50.6286 161.2906 234° Southwest 465 535 36,000  Level FlightAware Transoceanic
Sun 03:17:00 PM 50.5217 161.0596 234° Southwest 464 534 36,000  Level FlightAware Transoceanic
Sun 03:18:00 PM 50.4496 160.9018 234° Southwest 464 534 36,000  Level FlightAware Transoceanic
Sun 03:19:00 PM 50.3772 160.7445 234° Southwest 464 534 36,000  Level FlightAware Transoceanic
Sun 03:20:00 PM 50.3046 160.5877 234° Southwest 464 534 36,000  Level FlightAware Transoceanic
Sun 03:20:57 PM 50.2333 160.4333 234° Southwest 439 505 36,000  Level Anchorage Center
Sun 03:21:00 PM 50.2319 160.4313 234° Southwest 464 534 36,000  Level FlightAware Transoceanic
Sun 03:21:25 PM 50.2000 160.3833 234° Southwest 462 532 36,000  Level Anchorage Center
Sun 03:22:00 PM 50.1589 160.2754 234° Southwest 464 534 36,000  Level FlightAware Transoceanic
Sun 03:23:00 PM 50.0857 160.1200 234° Southwest 464 534 36,000  Level FlightAware Transoceanic
Sun 03:24:00 PM 50.0123 159.9650 234° Southwest 464 534 36,000  Level FlightAware Transoceanic
Sun 03:25:00 PM 49.9387 159.8106 233° Southwest 464 534 36,000  Level FlightAware Transoceanic
Sun 03:26:00 PM 49.8649 159.6566 233° Southwest 464 534 36,000  Level FlightAware Transoceanic
Sun 03:27:00 PM 49.7863 159.4964 234° Southwest 462 532 36,000  Level FlightAware Transoceanic
Sun 03:28:00 PM 49.7167 159.3500 233° Southwest 462 532 36,000  Level FlightAware Transoceanic
Sun 03:29:00 PM 49.6394 159.1923 233° Southwest 462 532 36,000  Level FlightAware Transoceanic
Sun 03:30:00 PM 49.5619 159.0351 233° Southwest 462 532 36,000  Level FlightAware Transoceanic
Sun 03:31:00 PM 49.4843 158.8784 233° Southwest 462 532 36,000  Level FlightAware Transoceanic
Sun 03:32:00 PM 49.4064 158.7222 232° Southwest 462 532 36,000  Level FlightAware Transoceanic
Sun 03:33:00 PM 49.3283 158.5665 232° Southwest 462 532 36,000  Level FlightAware Transoceanic
Sun 03:34:00 PM 49.2500 158.4113 232° Southwest 462 532 36,000  Level FlightAware Transoceanic
Sun 03:35:00 PM 49.1714 158.2565 232° Southwest 462 532 36,000  Level FlightAware Transoceanic
Sun 03:36:00 PM 49.0927 158.1023 232° Southwest 462 532 36,000  Level FlightAware Transoceanic
Sun 03:37:00 PM 49.0138 157.9485 232° Southwest 462 532 36,000  Level FlightAware Transoceanic
Sun 03:38:00 PM 48.9347 157.7953 232° Southwest 462 532 36,000  Level FlightAware Transoceanic
Sun 03:39:00 PM 48.8553 157.6425 232° Southwest 462 532 36,000  Level FlightAware Transoceanic
Sun 03:40:00 PM 48.7758 157.4902 232° Southwest 462 532 36,000  Level FlightAware Transoceanic
Sun 03:41:00 PM 48.6960 157.3384 231° Southwest 462 532 36,000  Level FlightAware Transoceanic
Sun 03:42:00 PM 48.6161 157.1871 231° Southwest 462 532 36,000  Level FlightAware Transoceanic
Sun 03:43:00 PM 48.5360 157.0362 231° Southwest 462 532 36,000  Level FlightAware Transoceanic
Sun 03:44:00 PM 48.4557 156.8859 231° Southwest 462 532 36,000  Level FlightAware Transoceanic
Sun 03:45:00 PM 48.3751 156.7360 231° Southwest 462 532 36,000  Level FlightAware Transoceanic
Sun 03:46:00 PM 48.2944 156.5865 231° Southwest 462 532 36,000  Level FlightAware Transoceanic
Sun 03:47:00 PM 48.2135 156.4376 231° Southwest 462 532 36,000  Level FlightAware Transoceanic
Sun 03:48:00 PM 48.1324 156.2891 231° Southwest 462 532 36,000  Level FlightAware Transoceanic
Sun 03:49:00 PM 48.0511 156.1411 231° Southwest 462 532 36,000  Level FlightAware Transoceanic
Sun 03:50:00 PM 47.9696 155.9936 230° Southwest 462 532 36,000  Level FlightAware Transoceanic
Sun 03:51:00 PM 47.8880 155.8465 230° Southwest 462 532 36,000  Level FlightAware Transoceanic
Sun 03:52:00 PM 47.8061 155.6999 230° Southwest 462 532 36,000  Level FlightAware Transoceanic
Sun 03:53:00 PM 47.7240 155.5537 230° Southwest 462 532 36,000  Level FlightAware Transoceanic
Sun 03:54:00 PM 47.6418 155.4080 230° Southwest 462 532 36,000  Level FlightAware Transoceanic
Sun 03:55:00 PM 47.5594 155.2628 230° Southwest 462 532 36,000  Level FlightAware Transoceanic
Sun 03:56:00 PM 47.4768 155.1180 230° Southwest 462 532 36,000  Level FlightAware Transoceanic
Sun 03:57:00 PM 47.3940 154.9737 230° Southwest 462 532 36,000  Level FlightAware Transoceanic
Sun 03:58:00 PM 47.3111 154.8298 230° Southwest 462 532 36,000  Level FlightAware Transoceanic
Sun 03:59:00 PM 47.2279 154.6864 229° Southwest 462 532 36,000  Level FlightAware Transoceanic
Sun 04:00:00 PM 47.1446 154.5435 229° Southwest 462 532 36,000  Level FlightAware Transoceanic
Sun 04:01:00 PM 47.0611 154.4009 229° Southwest 462 532 36,000  Level FlightAware Transoceanic
Sun 04:02:00 PM 46.9775 154.2589 229° Southwest 462 532 36,000  Level FlightAware Transoceanic
Sun 04:03:00 PM 46.8936 154.1172 229° Southwest 462 532 36,000  Level FlightAware Transoceanic
Sun 04:04:00 PM 46.8096 153.9760 229° Southwest 462 532 36,000  Level FlightAware Transoceanic
Sun 04:05:00 PM 46.7254 153.8353 229° Southwest 462 532 36,000  Level FlightAware Transoceanic
Sun 04:06:00 PM 46.6410 153.6950 229° Southwest 462 532 36,000  Level FlightAware Transoceanic
Sun 04:07:00 PM 46.5565 153.5551 229° Southwest 462 532 36,000  Level FlightAware Transoceanic
Sun 04:08:00 PM 46.4718 153.4157 229° Southwest 462 532 36,000  Level FlightAware Transoceanic
Sun 04:09:00 PM 46.3869 153.2767 228° Southwest 462 532 36,000  Level FlightAware Transoceanic
Sun 04:10:00 PM 46.3019 153.1381 228° Southwest 462 532 36,000  Level FlightAware Transoceanic
Sun 04:11:00 PM 46.2208 153.0066 228° Southwest  Level FlightAware Approximate
Sun 04:12:00 PM 46.1395 152.8755 228° Southwest  Level FlightAware Approximate
Sun 04:13:00 PM 46.1431 152.8827 228° Southwest  Level FlightAware Approximate
Sun 04:14:00 PM 46.0612 152.7525 228° Southwest  Level FlightAware Approximate
Sun 04:15:00 PM 45.9792 152.6228 228° Southwest  Level FlightAware Approximate
Sun 04:16:00 PM 45.8969 152.4935 228° Southwest  Level FlightAware Approximate
Sun 04:17:00 PM 45.8146 152.3645 228° Southwest  Level FlightAware Approximate
Sun 04:18:00 PM 45.7321 152.2359 227° Southwest  Level FlightAware Approximate
Sun 04:19:00 PM 45.6495 152.1077 227° Southwest  Level FlightAware Approximate
Sun 04:20:00 PM 45.5667 151.9799 227° Southwest  Level FlightAware Approximate
Sun 04:21:00 PM 45.4837 151.8524 227° Southwest  Level FlightAware Approximate
Sun 04:22:00 PM 45.4007 151.7254 227° Southwest  Level FlightAware Approximate
Sun 04:23:00 PM 45.3175 151.5987 227° Southwest  Level FlightAware Approximate
Sun 04:24:00 PM 45.2341 151.4724 227° Southwest  Level FlightAware Approximate
Sun 04:25:00 PM 45.1506 151.3464 227° Southwest  Level FlightAware Approximate
Sun 04:26:00 PM 45.0670 151.2208 227° Southwest  Level FlightAware Approximate
Sun 04:27:00 PM 44.9832 151.0956 227° Southwest  Level FlightAware Approximate
Sun 04:28:00 PM 44.8993 150.9707 227° Southwest  Level FlightAware Approximate
Sun 04:29:00 PM 44.8153 150.8462 226° Southwest  Level FlightAware Approximate
Sun 04:30:00 PM 44.7312 150.7221 226° Southwest  Level FlightAware Approximate
Sun 04:31:00 PM 44.6469 150.5983 226° Southwest  Level FlightAware Approximate
Sun 04:32:00 PM 44.5624 150.4749 226° Southwest  Level FlightAware Approximate
Sun 04:33:00 PM 44.4778 150.3519 226° Southwest  Level FlightAware Approximate
Sun 04:34:00 PM 44.3931 150.2292 226° Southwest  Level FlightAware Approximate
Sun 04:35:00 PM 44.3083 150.1068 226° Southwest  Level FlightAware Approximate
Sun 04:36:00 PM 44.2234 149.9848 226° Southwest  Level FlightAware Approximate
Sun 04:37:00 PM 44.1383 149.8632 226° Southwest  Level FlightAware Approximate
Sun 04:38:00 PM 44.0530 149.7419 226° Southwest  Level FlightAware Approximate
Sun 04:39:00 PM 43.9677 149.6210 226° Southwest  Level FlightAware Approximate
Sun 04:40:00 PM 43.8822 149.5004 226° Southwest  Level FlightAware Approximate
Sun 04:41:00 PM 43.7966 149.3802 225° Southwest  Level FlightAware Approximate
Sun 04:42:00 PM 43.7109 149.2603 225° Southwest  Level FlightAware Approximate
Sun 04:43:00 PM 43.6250 149.1407 225° Southwest  Level FlightAware Approximate
Sun 04:44:00 PM 43.5391 149.0215 225° Southwest  Level FlightAware Approximate
Sun 04:45:00 PM 43.4530 148.9026 225° Southwest  Level FlightAware Approximate
Sun 04:45:42 PM 43.2930 148.6830 225° Southwest 432 497 36,000  Level FlightAware ADS-B
Sun 04:46:00 PM 43.3667 148.7841 225° Southwest  Level FlightAware Approximate
Sun 04:46:17 PM 43.2380 148.6080 225° Southwest 431 496 36,000  Level FlightAware ADS-B
Sun 04:47:07 PM 43.1710 148.5160 225° Southwest 431 496 36,000  Level FlightAware ADS-B
Sun 04:47:47 PM 43.1170 148.4440 224° Southwest 432 497 36,000  Level FlightAware ADS-B
Sun 04:48:27 PM 43.0530 148.3570 225° Southwest 432 497 36,000  Level FlightAware ADS-B
Sun 04:49:12 PM 42.9910 148.2730 225° Southwest 433 498 36,000  Level FlightAware ADS-B
Sun 04:50:22 PM 42.8930 148.1410 225° Southwest 433 498 36,000  Level FlightAware ADS-B
Sun 04:51:02 PM 42.8360 148.0650 224° Southwest 434 499 36,000  Level FlightAware ADS-B
Sun 04:51:42 PM 42.7830 147.9940 225° Southwest 433 498 36,000  Level FlightAware ADS-B
Sun 04:52:27 PM 42.7160 147.9040 225° Southwest 433 498 36,000  Level FlightAware ADS-B
Sun 04:53:37 PM 42.6160 147.7710 224° Southwest 433 498 36,000  Level FlightAware ADS-B
Sun 04:54:07 PM 42.5690 147.7100 224° Southwest 432 497 36,000  Level FlightAware ADS-B
Sun 04:55:02 PM 42.4940 147.6110 224° Southwest 432 497 36,000  Level FlightAware ADS-B
Sun 04:55:42 PM 42.4370 147.5360 224° Southwest 432 497 36,000  Level FlightAware ADS-B
Sun 04:56:22 PM 42.3810 147.4620 224° Southwest 428 493 36,000  Level FlightAware ADS-B
Sun 04:57:07 PM 42.3150 147.3770 224° Southwest 427 491 36,000  Level FlightAware ADS-B
Sun 04:57:47 PM 42.2530 147.2940 225° Southwest 427 491 36,000  Level FlightAware ADS-B
Sun 04:58:27 PM 42.1940 147.2180 224° Southwest 428 493 36,000  Level FlightAware ADS-B
Sun 04:59:27 PM 42.1080 147.1060 224° Southwest 428 493 36,000  Level FlightAware ADS-B
Sun 05:00:57 PM 41.9790 146.9400 224° Southwest 429 494 36,000  Level FlightAware ADS-B
Sun 05:01:47 PM 41.9040 146.8440 224° Southwest 429 494 36,000  Level FlightAware ADS-B
Sun 05:02:57 PM 41.8030 146.7140 224° Southwest 429 494 36,000  Level FlightAware ADS-B
Sun 05:04:17 PM 41.6890 146.5680 224° Southwest 428 493 36,000  Level FlightAware ADS-B
Sun 05:05:27 PM 41.5840 146.4350 223° Southwest 427 491 36,000  Level FlightAware ADS-B
Sun 05:06:02 PM 41.5350 146.3720 224° Southwest 426 490 36,000  Level FlightAware ADS-B
Sun 05:06:52 PM 41.4620 146.2810 223° Southwest 425 489 36,000  Level FlightAware ADS-B
Sun 05:07:42 PM 41.3890 146.1890 223° Southwest 426 490 36,000  Level FlightAware ADS-B
Sun 05:10:00 PM 41.1828 145.9364 223° Southwest  Level FlightAware Approximate
Sun 05:11:00 PM 41.0942 145.8251 224° Southwest  Level FlightAware Approximate
Sun 05:11:12 PM 41.0830 145.8070 224° Southwest 426 490 36,000  Level FlightAware ADS-B
Sun 05:11:57 PM 41.0190 145.7270 223° Southwest 425 489 36,000  Level FlightAware ADS-B
Sun 05:13:12 PM 40.9150 145.5990 223° Southwest 422 486 36,000  Level FlightAware ADS-B
Sun 05:13:47 PM 40.8730 145.5460 224° Southwest 422 486 36,000  Level FlightAware ADS-B
Sun 05:15:22 PM 40.7270 145.3680 223° Southwest 419 482 36,000  Level FlightAware ADS-B
Sun 05:16:27 PM 40.6410 145.2640 223° Southwest 420 483 36,000  Level FlightAware ADS-B
Sun 05:17:07 PM 40.5930 145.2050 223° Southwest 420 483 36,000  Level FlightAware ADS-B
Sun 05:17:52 PM 40.5130 145.1090 222° Southwest 422 486 36,000  Level FlightAware ADS-B
Sun 05:18:32 PM 40.4650 145.0490 224° Southwest 422 486 36,000  Level FlightAware ADS-B
Sun 05:19:12 PM 40.4160 144.9900 223° Southwest 422 486 36,000  Level FlightAware ADS-B
Sun 05:19:52 PM 40.3680 144.9300 224° Southwest 422 486 36,000  Level FlightAware ADS-B
Sun 05:20:42 PM 40.3070 144.8560 223° Southwest 422 486 36,000  Level FlightAware ADS-B
Sun 05:21:22 PM 40.2590 144.7960 224° Southwest 422 486 36,000  Level FlightAware ADS-B
Sun 05:22:02 PM 40.2100 144.7370 223° Southwest 422 486 36,000  Level FlightAware ADS-B
Sun 05:22:42 PM 40.1610 144.6780 223° Southwest 422 486 36,000  Level FlightAware ADS-B
Sun 05:23:32 PM 40.1010 144.6040 223° Southwest 422 486 36,000  Level FlightAware ADS-B
Sun 05:24:12 PM 40.0520 144.5450 223° Southwest 422 486 36,000  Level FlightAware ADS-B
Sun 05:24:52 PM 40.0040 144.4860 223° Southwest 422 486 36,000  Level FlightAware ADS-B
Sun 05:25:32 PM 39.9550 144.4270 223° Southwest 422 486 36,000  Level FlightAware ADS-B
Sun 05:26:12 PM 39.9070 144.3680 223° Southwest 422 486 36,000  Level FlightAware ADS-B
Sun 05:26:52 PM 39.8580 144.3090 223° Southwest 422 486 36,000  Level FlightAware ADS-B
Sun 05:29:00 PM 39.6640 144.0838 222° Southwest  Level FlightAware Approximate
Sun 05:30:00 PM 39.5730 143.9787 222° Southwest  Level FlightAware Approximate
Sun 05:31:00 PM 39.4818 143.8739 222° Southwest  Level FlightAware Approximate
Sun 05:32:00 PM 39.3905 143.7693 222° Southwest  Level FlightAware Approximate
Sun 05:33:00 PM 39.2992 143.6651 221° Southwest  Level FlightAware Approximate
Sun 05:34:00 PM 39.2078 143.5611 221° Southwest  Level FlightAware Approximate
Sun 05:35:00 PM 39.1159 143.4577 221° Southwest  Level FlightAware Approximate
Sun 05:36:00 PM 39.0239 143.3548 221° Southwest  Level FlightAware Approximate
Sun 05:37:00 PM 38.9319 143.2521 221° Southwest  Level FlightAware Approximate
Sun 05:38:00 PM 38.8235 143.1877 196° South  Level FlightAware Approximate
Sun 05:38:52 PM 38.3970 143.3160 196° South 443 510 36,000  Level FlightAware ADS-B
Sun 05:39:37 PM 38.3120 143.2730 202° Southwest 440 506 36,000  Level FlightAware ADS-B
Sun 05:40:17 PM 38.2400 143.2370 201° Southwest 440 506 36,000  Level FlightAware ADS-B
Sun 05:40:57 PM 38.1760 143.2040 202° Southwest 440 506 36,000  Level FlightAware ADS-B
Sun 05:41:37 PM 38.0920 143.1630 201° Southwest 437 503 36,000  Level FlightAware ADS-B
Sun 05:42:17 PM 38.0080 143.1200 202° Southwest 434 499 36,000  Level FlightAware ADS-B
Sun 05:43:17 PM 37.8980 143.0650 202° Southwest 432 497 36,000  Level FlightAware ADS-B
Sun 05:44:02 PM 37.8140 143.0230 202° Southwest 431 496 36,000  Level FlightAware ADS-B
Sun 05:44:42 PM 37.7400 142.9860 202° Southwest 431 496 36,000  Level FlightAware ADS-B
Sun 05:45:27 PM 37.6550 142.9440 201° Southwest 432 497 36,000  Level FlightAware ADS-B
Sun 05:46:07 PM 37.5800 142.9070 201° Southwest 431 496 36,000  Level FlightAware ADS-B
Sun 05:46:47 PM 37.5060 142.8700 202° Southwest 433 498 36,000  Level FlightAware ADS-B
Sun 05:47:32 PM 37.4210 142.8280 201° Southwest 433 498 36,000  Level FlightAware ADS-B
Sun 05:48:12 PM 37.3490 142.7930 201° Southwest 433 498 36,000  Level FlightAware ADS-B
Sun 05:48:52 PM 37.2710 142.7540 202° Southwest 432 497 36,000  Level FlightAware ADS-B
Sun 05:49:37 PM 37.1900 142.7100 203° Southwest 424 488 36,000  Level FlightAware ADS-B
Sun 05:50:17 PM 37.1190 142.6670 206° Southwest 431 496 36,000  Level FlightAware ADS-B
Sun 05:51:02 PM 37.0350 142.6170 205° Southwest 430 495 36,000  Level FlightAware ADS-B
Sun 05:51:42 PM 36.9650 142.5750 206° Southwest 430 495 36,000  Level FlightAware ADS-B
Sun 05:52:27 PM 36.8840 142.5270 205° Southwest 429 494 36,000  Level FlightAware ADS-B
Sun 05:53:07 PM 36.8120 142.4840 206° Southwest 430 495 36,000  Level FlightAware ADS-B
Sun 05:53:47 PM 36.7380 142.4410 205° Southwest 430 495 36,000  Level FlightAware ADS-B
Sun 05:54:32 PM 36.6660 142.3990 205° Southwest 430 495 36,000  Level FlightAware ADS-B
Sun 05:55:27 PM 36.5670 142.3410 205° Southwest 431 496 36,000  Level FlightAware ADS-B
Sun 05:56:22 PM 36.4640 142.2810 205° Southwest 431 496 36,000 -316 Level FlightAware ADS-B
Sun 05:57:02 PM 36.3910 142.2380 205° Southwest 435 501 35,500 -847 Descending FlightAware ADS-B
Sun 05:57:47 PM 36.3090 142.1910 205° Southwest 431 496 34,800 -918 Descending FlightAware ADS-B
Sun 05:58:27 PM 36.2370 142.1490 205° Southwest 427 491 34,200 -960 Descending FlightAware ADS-B
Sun 05:59:02 PM 36.1710 142.1110 205° Southwest 428 493 33,600 -706 Descending FlightAware ADS-B
Sun 05:59:52 PM 36.0890 142.0630 205° Southwest 420 483 33,200 -629 Descending FlightAware ADS-B
Sun 06:00:47 PM 35.9880 142.0050 205° Southwest 414 476 32,500 -720 Descending FlightAware ADS-B
Sun 06:01:32 PM 35.9110 141.9610 205° Southwest 411 473 32,000 -918 Descending FlightAware ADS-B
Sun 06:02:12 PM 35.8460 141.9130 211° Southwest 397 457 31,200 -1,875 Descending FlightAware ADS-B
Sun 06:02:52 PM 35.8140 141.8340 243° Southwest 378 435 29,500 -2,894 Descending FlightAware ADS-B
Sun 06:03:37 PM 35.8150 141.7420 271° West 361 415 27,100 -3,318 Descending FlightAware ADS-B
Sun 06:04:17 PM 35.8190 141.6600 273° West 353 406 24,800 -3,318 Descending FlightAware ADS-B
Sun 06:05:02 PM 35.8230 141.5710 273° West 342 394 22,400 -3,176 Descending FlightAware ADS-B
Sun 06:05:42 PM 35.8260 141.4930 273° West 338 389 20,300 -3,035 Descending FlightAware ADS-B
Sun 06:06:27 PM 35.8290 141.4080 273° West 330 380 18,100 -2,894 Descending FlightAware ADS-B
Sun 06:07:07 PM 35.8320 141.3340 273° West 319 367 16,200 -2,550 Descending FlightAware ADS-B
Sun 06:07:47 PM 35.8350 141.2620 273° West 320 368 14,700 -2,047 Descending FlightAware ADS-B
Sun 06:08:32 PM 35.8380 141.1800 273° West 319 367 13,300 -1,906 Descending FlightAware ADS-B
Sun 06:09:12 PM 35.8310 141.1070 263° West 317 365 12,000 -1,875 Descending FlightAware ADS-B
Sun 06:09:52 PM 35.8240 141.0370 263° West 317 365 10,800 -1,271 Descending FlightAware ADS-B
Sun 06:10:37 PM 35.8170 140.9570 264° West 303 349 10,200 -800 Descending FlightAware ADS-B
Sun 06:11:07 PM 35.8130 140.9080 264° West 277 319 9,800 -982 Descending FlightAware ADS-B
Sun 06:11:32 PM 35.8100 140.8710 264° West 254 292 9,300 -1,350 Descending FlightAware ADS-B
Sun 06:11:47 PM 35.8080 140.8490 264° West 249 287 8,900 -2,000 Descending FlightAware ADS-B
Sun 06:12:17 PM 35.8060 140.8070 267° West 246 283 7,800 -1,855 Descending FlightAware ADS-B
Sun 06:12:42 PM 35.8040 140.7740 266° West 235 270 7,200 -1,418 Descending FlightAware ADS-B
Sun 06:13:12 PM 35.8020 140.7350 266° West 220 253 6,500 -1,309 Descending FlightAware ADS-B
Sun 06:13:37 PM 35.8010 140.7040 268° West 214 246 6,000 -545 Descending FlightAware ADS-B
Sun 06:14:07 PM 35.7990 140.6670 266° West 211 243 6,000  Level FlightAware ADS-B
Sun 06:14:47 PM 35.8090 140.6220 285° West 230 265 6,000  Level FlightAware ADS-B
Sun 06:15:02 PM 35.8210 140.6140 332° Northwest 238 274 6,000  Level FlightAware ADS-B
Sun 06:15:32 PM 35.8550 140.5980 339° North 237 273 6,000  Level FlightAware ADS-B
Sun 06:15:57 PM 35.8810 140.5850 338° Northwest 238 274 6,000  Level FlightAware ADS-B
Sun 06:16:27 PM 35.9060 140.5620 323° Northwest 227 261 6,000  Level FlightAware ADS-B
Sun 06:16:52 PM 35.9210 140.5380 308° West 229 264 6,000  Level FlightAware ADS-B
Sun 06:17:12 PM 35.9340 140.5170 307° West 229 264 6,000 -300 Level FlightAware ADS-B
Sun 06:17:52 PM 35.9610 140.4750 308° West 219 252 5,700 -771 Descending FlightAware ADS-B
Sun 06:18:22 PM 35.9800 140.4440 307° West 220 253 5,100 -1,200 Descending FlightAware ADS-B
Sun 06:18:37 PM 35.9830 140.4260 282° West 210 242 4,800 -1,200 Descending FlightAware ADS-B
Sun 06:19:02 PM 35.9810 140.3960 265° West 210 242 4,300 -1,091 Descending FlightAware ADS-B
Sun 06:19:32 PM 35.9800 140.3620 268° West 213 245 3,800 -1,080 Descending FlightAware ADS-B
Sun 06:19:52 PM 35.9760 140.3400 257° West 207 238 3,400 -764 Descending FlightAware ADS-B
Sun 06:20:27 PM 35.9630 140.3030 247° West 192 221 3,100 -400 Descending FlightAware ADS-B
Sun 06:20:52 PM 35.9560 140.2810 249° West 180 207 3,000 -150 Descending FlightAware ADS-B
Sun 06:21:07 PM 35.9470 140.2660 233° Southwest 175 201 3,000  Level FlightAware ADS-B
Sun 06:21:22 PM 35.9390 140.2630 197° South 177 204 3,000 -171 Level FlightAware ADS-B
Sun 06:21:42 PM 35.9240 140.2640 177° South 180 207 2,900 -300 Descending FlightAware ADS-B
Sun 06:22:02 PM 35.9110 140.2680 166° South 186 214 2,800 -360 Descending FlightAware ADS-B
Sun 06:22:32 PM 35.8850 140.2880 148° Southeast 158 182 2,600 -600 Descending FlightAware ADS-B
Sun 06:23:02 PM 35.8660 140.3020 149° Southeast 154 177 2,200 -764 Descending FlightAware ADS-B
Sun 06:23:27 PM 35.8520 140.3120 150° Southeast 147 169 1,900 -764 Descending FlightAware ADS-B
Sun 06:23:57 PM 35.8360 140.3230 151° Southeast 126 145 1,500 -764 Descending FlightAware ADS-B
Sun 06:24:22 PM 35.8230 140.3330 148° Southeast 128 147 1,200 -600 Descending FlightAware ADS-B
Sun 06:24:47 PM 35.8100 140.3420 151° Southeast 133 153 1,000 -700 Descending FlightAware ADS-B
Sun 06:25:22 PM 35.7910 140.3560 149° Southeast 129 148 500 -462 Descending FlightAware ADS-B
Sun 06:25:52 PM 35.7780 140.3660 148° Southeast 129 148 500  Level FlightAware ADS-B
Sun 06:28:00 PM 35.7647 140.3864 253° West  Level Estimated
Sun 06:29:00 PM 35.7647 140.3864 253° West  Level Estimated
Sun 06:30:00 PM 35.7647 140.3864 253° West  Level Estimated
Sun 06:31:00 PM 35.7647 140.3864 253° West  Level Estimated
Sun 06:32:00 PM 35.7647 140.3864 253° West  Level Estimated
Sun 06:33:00 PM 35.7647 140.3864 253° West  Level Estimated

Login

Don't have an account? Register now (free) for customized features, flight alerts, and more!